createdAt,value
2022-12-23T00:01:51.140Z,187.90
2022-12-23T00:04:18.091Z,173.60
2022-12-23T00:06:45.029Z,183.80
2022-12-23T00:09:11.764Z,175.73
2022-12-23T00:11:58.503Z,195.18
2022-12-23T00:14:44.198Z,184.75
2022-12-23T00:17:22.176Z,163.27
2022-12-23T00:19:49.820Z,159.82
2022-12-23T00:22:16.685Z,156.82
2022-12-23T00:24:43.591Z,142.70
2022-12-23T00:27:10.363Z,128.05
2022-12-23T00:29:37.133Z,69.90
2022-12-23T00:32:04.070Z,70.32
2022-12-23T00:34:31.018Z,81.93
2022-12-23T00:36:57.776Z,69.72
2022-12-23T00:39:43.335Z,74.25
2022-12-23T00:42:28.813Z,59.35
2022-12-23T00:45:15.556Z,60.10
2022-12-23T00:48:02.088Z,52.45
2022-12-23T00:50:29.479Z,54.28
2022-12-23T00:52:56.556Z,54.15
2022-12-23T00:55:23.382Z,51.58
2022-12-23T00:57:50.130Z,55.92
2022-12-23T01:00:17.282Z,52.65
2022-12-23T01:03:02.672Z,61.50
2022-12-23T01:05:38.374Z,64.10
2022-12-23T01:08:09.364Z,63.65
2022-12-23T01:13:06.600Z,66.40
2022-12-23T01:15:34.480Z,67.75
2022-12-23T01:18:01.214Z,63.85
2022-12-23T01:20:28.010Z,64.25
2022-12-23T01:22:54.714Z,62.78
2022-12-23T01:25:21.546Z,55.65
2022-12-23T01:27:48.282Z,57.20
2022-12-23T01:30:15.135Z,55.97
2022-12-23T01:32:41.901Z,55.05
2022-12-23T01:35:08.729Z,52.45
2022-12-23T01:37:35.529Z,49.45
2022-12-23T01:40:02.323Z,43.03
2022-12-23T01:42:44.087Z,47.10
2022-12-23T01:45:18.907Z,40.10
2022-12-23T01:47:51.601Z,35.60
2022-12-23T01:50:18.421Z,39.17
2022-12-23T01:52:50.578Z,42.13
2022-12-23T01:55:19.231Z,39.53
2022-12-23T01:57:45.978Z,36.83
2022-12-23T02:00:31.564Z,38.20
2022-12-23T02:03:17.061Z,34.20
2022-12-23T02:05:45.220Z,35.70
2022-12-23T02:08:31.469Z,35.17
2022-12-23T02:11:14.951Z,33.95
2022-12-23T02:14:23.706Z,33.03
2022-12-23T02:17:02.348Z,38.63
2022-12-23T02:19:53.327Z,42.20
2022-12-23T02:22:39.378Z,43.50
2022-12-23T02:25:23.016Z,42.35
2022-12-23T02:28:08.156Z,38.40
2022-12-23T02:30:47.106Z,37.22
2022-12-23T02:33:23.081Z,43.83
2022-12-23T02:36:37.458Z,39.53
2022-12-23T02:39:11.982Z,40.33
2022-12-23T02:41:59.271Z,49.13
2022-12-23T02:44:41.032Z,44.28
2022-12-23T02:47:12.729Z,45.92
2022-12-23T02:49:41.198Z,52.95
2022-12-23T02:52:12.589Z,56.03
2022-12-23T02:54:44.206Z,59.72
2022-12-23T02:57:11.535Z,69.90
2022-12-23T02:59:43.942Z,65.78
2022-12-23T03:02:10.937Z,64.07
2022-12-23T03:04:38.193Z,60.92
2022-12-23T03:07:08.039Z,71.70
2022-12-23T03:09:48.056Z,135.75
2022-12-23T03:12:27.553Z,130.98
2022-12-23T03:15:19.377Z,96.25
2022-12-23T03:18:06.207Z,95.60
2022-12-23T03:20:51.071Z,102.53
2022-12-23T03:23:32.449Z,107.28
2022-12-23T03:26:02.034Z,125.40
2022-12-23T03:28:31.799Z,114.35
2022-12-23T03:30:59.512Z,107.50
2022-12-23T03:33:28.532Z,115.72
2022-12-23T03:35:59.070Z,116.10
2022-12-23T03:38:25.816Z,105.22
2022-12-23T03:40:54.909Z,99.65
2022-12-23T03:43:27.567Z,117.63
2022-12-23T03:45:56.737Z,116.78
2022-12-23T03:48:41.295Z,109.70
2022-12-23T03:51:16.847Z,86.95
2022-12-23T03:53:52.046Z,96.40
2022-12-23T03:56:23.192Z,88.43
2022-12-23T03:58:58.684Z,90.53
2022-12-23T04:01:42.874Z,90.35
2022-12-23T04:04:14.963Z,99.55
2022-12-23T04:07:10.665Z,97.63
2022-12-23T04:09:37.469Z,94.57
2022-12-23T04:12:04.557Z,89.32
2022-12-23T04:14:31.447Z,83.72
2022-12-23T04:17:00.895Z,75.85
2022-12-23T04:19:27.818Z,64.10
2022-12-23T04:21:55.541Z,45.50
2022-12-23T04:24:22.430Z,42.55
2022-12-23T04:26:49.163Z,60.83
2022-12-23T04:29:16.016Z,78.18
2022-12-23T04:31:42.897Z,93.70
2022-12-23T04:34:09.812Z,82.03
2022-12-23T04:36:36.607Z,77.97
2022-12-23T04:39:03.466Z,64.38
2022-12-23T04:41:30.243Z,60.92
2022-12-23T04:43:57.021Z,61.30
2022-12-23T04:46:23.914Z,56.42
2022-12-23T04:48:50.713Z,51.80
2022-12-23T04:51:17.495Z,50.47
2022-12-23T04:53:44.346Z,50.90
2022-12-23T04:56:11.249Z,61.55
2022-12-23T04:58:38.186Z,53.35
2022-12-23T05:01:07.026Z,47.33
2022-12-23T05:03:33.889Z,47.78
2022-12-23T05:06:00.797Z,47.55
2022-12-23T05:08:27.702Z,47.47
2022-12-23T05:10:54.488Z,44.83
2022-12-23T05:13:21.390Z,48.90
2022-12-23T05:15:52.101Z,41.80
2022-12-23T05:18:19.030Z,42.72
2022-12-23T05:20:45.878Z,48.88
2022-12-23T05:23:12.771Z,57.83
2022-12-23T05:25:39.550Z,60.22
2022-12-23T05:28:06.658Z,59.03
2022-12-23T05:30:33.472Z,57.20
2022-12-23T05:33:00.364Z,51.72
2022-12-23T05:35:27.310Z,47.55
2022-12-23T05:37:54.155Z,51.53
2022-12-23T05:40:23.702Z,52.95
2022-12-23T05:42:55.798Z,48.50
2022-12-23T05:45:22.757Z,45.90
2022-12-23T05:47:49.568Z,42.58
2022-12-23T05:50:16.427Z,38.60
2022-12-23T05:52:43.207Z,39.80
2022-12-23T05:55:10.401Z,37.08
2022-12-23T05:57:37.148Z,32.92
2022-12-23T06:00:04.838Z,35.38
2022-12-23T06:02:31.799Z,35.97
2022-12-23T06:04:58.707Z,31.05
2022-12-23T06:07:25.486Z,31.40
2022-12-23T06:09:52.273Z,27.92
2022-12-23T06:12:19.080Z,34.97
2022-12-23T06:14:45.795Z,34.85
2022-12-23T06:17:12.602Z,29.88
2022-12-23T06:19:39.415Z,34.05
2022-12-23T06:22:06.197Z,29.17
2022-12-23T06:24:32.956Z,32.88
2022-12-23T06:26:59.692Z,34.75
2022-12-23T06:29:26.536Z,34.92
2022-12-23T06:31:53.344Z,31.85
2022-12-23T06:34:20.199Z,32.00
2022-12-23T06:36:46.952Z,41.83
2022-12-23T06:39:14.222Z,36.65
2022-12-23T06:41:41.007Z,52.20
2022-12-23T06:44:07.848Z,44.55
2022-12-23T06:46:34.575Z,49.47
2022-12-23T06:49:02.586Z,56.78
2022-12-23T06:51:31.674Z,59.88
2022-12-23T06:53:59.373Z,61.03
2022-12-23T06:56:26.460Z,80.93
2022-12-23T06:58:53.197Z,74.68
2022-12-23T07:01:20.527Z,72.32
2022-12-23T07:03:47.405Z,64.32
2022-12-23T07:06:14.201Z,57.72
2022-12-23T07:08:41.029Z,56.58
2022-12-23T07:11:08.551Z,58.15
2022-12-23T07:13:35.869Z,60.42
2022-12-23T07:16:06.887Z,55.03
2022-12-23T07:18:34.066Z,62.40
2022-12-23T07:21:01.138Z,55.55
2022-12-23T07:23:27.956Z,51.15
2022-12-23T07:25:55.809Z,52.28
2022-12-23T07:28:25.565Z,57.30
2022-12-23T07:30:52.389Z,72.30
2022-12-23T07:33:19.213Z,52.85
2022-12-23T07:35:45.998Z,72.97
2022-12-23T07:38:12.838Z,48.70
2022-12-23T07:40:39.765Z,43.10
2022-12-23T07:43:06.554Z,44.13
2022-12-23T07:45:33.367Z,41.03
2022-12-23T07:48:01.477Z,42.47
2022-12-23T07:50:28.347Z,43.15
2022-12-23T07:52:55.263Z,43.45
2022-12-23T07:55:22.095Z,42.22
2022-12-23T07:57:49.587Z,42.35
2022-12-23T08:00:16.701Z,49.15
2022-12-23T08:02:43.763Z,53.55
2022-12-23T08:05:10.843Z,55.28
2022-12-23T08:07:37.641Z,53.90
2022-12-23T08:10:05.344Z,55.35
2022-12-23T08:12:32.205Z,52.78
2022-12-23T08:14:59.134Z,52.17
2022-12-23T08:17:29.819Z,56.45
2022-12-23T08:19:57.136Z,58.70
2022-12-23T08:22:24.260Z,49.97
2022-12-23T08:24:52.553Z,51.15
2022-12-23T08:27:19.511Z,50.38
2022-12-23T08:29:46.337Z,63.50
2022-12-23T08:32:13.173Z,61.92
2022-12-23T08:34:40.042Z,52.17
2022-12-23T08:37:06.899Z,52.88
2022-12-23T08:39:33.647Z,50.03
2022-12-23T08:42:00.437Z,59.88
2022-12-23T08:44:28.020Z,62.80
2022-12-23T08:46:55.359Z,57.20
2022-12-23T08:49:22.114Z,59.28
2022-12-23T08:51:48.992Z,52.05
2022-12-23T08:54:15.926Z,59.90
2022-12-23T08:56:42.944Z,63.83
2022-12-23T08:59:18.763Z,55.30
2022-12-23T09:01:46.971Z,59.22
2022-12-23T09:04:13.941Z,64.13
2022-12-23T09:06:41.932Z,62.08
2022-12-23T09:09:10.415Z,66.07
2022-12-23T09:11:37.320Z,69.70
2022-12-23T09:14:04.537Z,77.57
2022-12-23T09:16:31.625Z,82.32
2022-12-23T09:18:58.551Z,76.47
2022-12-23T09:21:25.452Z,75.15
2022-12-23T09:23:52.277Z,69.72
2022-12-23T09:26:21.178Z,75.05
2022-12-23T09:28:48.118Z,73.40
2022-12-23T09:31:15.338Z,74.07
2022-12-23T09:33:42.344Z,77.47
2022-12-23T09:36:09.295Z,81.78
2022-12-23T09:38:36.269Z,70.95
2022-12-23T09:41:35.055Z,74.35
2022-12-23T09:44:23.087Z,76.60
2022-12-23T09:46:52.604Z,67.15
2022-12-23T09:49:19.558Z,63.08
2022-12-23T09:51:46.306Z,67.53
2022-12-23T09:54:17.783Z,68.32
2022-12-23T09:56:48.827Z,78.75
2022-12-23T09:59:51.467Z,69.68
2022-12-23T10:02:18.416Z,65.47
2022-12-23T10:05:02.878Z,57.03
2022-12-23T10:07:41.954Z,63.20
2022-12-23T10:10:17.950Z,54.67
2022-12-23T10:12:47.122Z,76.15
2022-12-23T10:15:24.171Z,53.35
2022-12-23T10:17:53.016Z,53.53
2022-12-23T10:20:30.139Z,46.80
2022-12-23T10:22:56.975Z,43.00
2022-12-23T10:25:39.206Z,37.05
2022-12-23T10:28:05.993Z,38.22
2022-12-23T10:30:57.280Z,34.95
2022-12-23T10:33:24.611Z,48.67
2022-12-23T10:36:32.686Z,35.13
2022-12-23T10:39:03.176Z,42.63
2022-12-23T10:41:53.694Z,35.53
2022-12-23T10:44:42.536Z,33.40
2022-12-23T10:47:31.719Z,36.10
2022-12-23T10:50:12.336Z,32.55
2022-12-23T10:52:40.211Z,12.63
2022-12-23T10:55:11.335Z,5.90
2022-12-23T10:57:38.104Z,3.10
2022-12-23T11:00:16.952Z,3.85
2022-12-23T11:03:08.443Z,2.55
2022-12-23T11:05:35.351Z,9.32
2022-12-23T11:08:02.278Z,6.18
2022-12-23T11:10:32.906Z,6.18
2022-12-23T11:13:00.410Z,2.78
2022-12-23T11:15:34.249Z,2.80
2022-12-23T11:18:13.306Z,2.17
2022-12-23T11:20:44.563Z,2.47
2022-12-23T11:23:25.427Z,3.28
2022-12-23T11:26:06.682Z,6.50
2022-12-23T11:28:37.586Z,2.35
2022-12-23T11:31:08.731Z,2.03
2022-12-23T11:33:36.905Z,1.85
2022-12-23T11:36:08.450Z,1.90
2022-12-23T11:38:36.216Z,1.98
2022-12-23T11:41:04.113Z,2.78
2022-12-23T11:43:30.884Z,4.15
2022-12-23T11:46:19.018Z,13.55
2022-12-23T11:48:48.642Z,6.03
2022-12-23T11:51:25.402Z,3.05
2022-12-23T11:53:59.079Z,2.55
2022-12-23T11:56:25.952Z,5.65
2022-12-23T11:59:02.550Z,4.43
2022-12-23T12:01:29.372Z,3.97
2022-12-23T12:03:59.360Z,3.80
2022-12-23T12:06:26.302Z,4.13
2022-12-23T12:08:54.133Z,1.88
2022-12-23T12:11:35.748Z,2.40
2022-12-23T12:14:03.800Z,3.25
2022-12-23T12:16:40.019Z,10.15
2022-12-23T12:19:25.335Z,2.15
2022-12-23T12:21:53.647Z,2.08
2022-12-23T12:24:39.287Z,2.97
2022-12-23T12:27:06.991Z,2.70
2022-12-23T12:29:48.792Z,2.42
2022-12-23T12:32:31.298Z,1.90
2022-12-23T12:35:03.743Z,2.15
2022-12-23T12:37:43.574Z,1.38
2022-12-23T12:40:36.646Z,1.80
2022-12-23T12:43:25.125Z,2.10
2022-12-23T12:46:26.187Z,2.25
2022-12-23T12:49:11.778Z,1.65
2022-12-23T12:51:40.806Z,6.32
2022-12-23T12:54:44.351Z,2.03
2022-12-23T12:57:21.289Z,2.72
2022-12-23T12:59:52.748Z,1.92
2022-12-23T13:02:31.988Z,4.20
2022-12-23T13:05:20.973Z,1.80
2022-12-23T13:08:10.364Z,2.53
2022-12-23T13:10:56.613Z,2.33
2022-12-23T13:13:40.828Z,2.03
2022-12-23T13:16:18.121Z,1.60
2022-12-23T13:19:19.212Z,1.30
2022-12-23T13:22:03.034Z,2.08
2022-12-23T13:24:54.282Z,2.42
2022-12-23T13:27:33.946Z,1.42
2022-12-23T13:30:06.695Z,4.50
2022-12-23T13:32:39.695Z,2.90
2022-12-23T13:35:12.488Z,2.40
2022-12-23T13:37:56.500Z,15.65
2022-12-23T13:40:42.625Z,6.95
2022-12-23T13:43:18.665Z,2.60
2022-12-23T13:45:46.261Z,7.65
2022-12-23T13:48:28.163Z,3.08
2022-12-23T13:51:00.864Z,11.60
2022-12-23T13:53:47.419Z,7.47
2022-12-23T13:56:19.900Z,6.05
2022-12-23T13:58:48.148Z,4.32
2022-12-23T14:01:14.933Z,2.22
2022-12-23T14:03:41.801Z,7.60
2022-12-23T14:06:23.608Z,3.08
2022-12-23T14:08:51.536Z,2.67
2022-12-23T14:11:26.127Z,3.00
2022-12-23T14:14:00.637Z,3.25
2022-12-23T14:16:58.163Z,4.88
2022-12-23T14:19:37.365Z,10.93
2022-12-23T14:22:07.682Z,14.20
2022-12-23T14:24:55.921Z,12.27
2022-12-23T14:27:52.254Z,13.40
2022-12-23T14:30:31.969Z,8.15
2022-12-23T14:33:19.696Z,17.13
2022-12-23T14:35:46.458Z,6.75
2022-12-23T14:38:16.083Z,8.90
2022-12-23T14:40:42.869Z,11.50
2022-12-23T14:43:46.631Z,19.17
2022-12-23T14:46:37.171Z,16.27
2022-12-23T14:49:36.851Z,22.58
2022-12-23T14:51:51.042Z,20.60
2022-12-23T14:54:18.385Z,26.33
2022-12-23T14:56:55.624Z,37.03
2022-12-23T15:00:13.605Z,33.10
2022-12-23T15:02:41.307Z,37.70
2022-12-23T15:05:08.770Z,37.97
2022-12-23T15:07:42.660Z,53.78
2022-12-23T15:10:17.705Z,49.47
2022-12-23T15:12:48.066Z,39.50
2022-12-23T15:15:14.939Z,52.90
2022-12-23T15:17:41.883Z,34.92
2022-12-23T15:20:17.559Z,54.97
2022-12-23T15:22:44.965Z,60.05
2022-12-23T15:25:31.838Z,78.93
2022-12-23T15:28:01.889Z,103.75
2022-12-23T15:30:46.701Z,105.43
2022-12-23T15:33:51.969Z,85.30
2022-12-23T15:36:04.847Z,113.80
2022-12-23T15:38:34.515Z,47.83
2022-12-23T15:41:06.065Z,62.53
2022-12-23T15:43:32.871Z,42.67
2022-12-23T15:46:15.124Z,50.70
2022-12-23T15:48:42.019Z,35.47
2022-12-23T15:51:57.632Z,50.97
2022-12-23T15:56:40.755Z,53.65
2022-12-23T15:59:11.719Z,69.00
2022-12-23T16:04:06.186Z,58.60
2022-12-23T16:06:34.440Z,45.90
2022-12-23T16:09:05.094Z,45.83
2022-12-23T16:11:51.887Z,55.13
2022-12-23T16:14:31.147Z,44.88
2022-12-23T16:17:07.311Z,46.03
2022-12-23T16:19:47.939Z,47.03
2022-12-23T16:24:50.618Z,38.55
2022-12-23T16:27:18.417Z,38.58
2022-12-23T16:29:48.827Z,33.42
2022-12-23T16:32:16.878Z,36.30
2022-12-23T16:34:45.373Z,36.63
2022-12-23T16:37:12.206Z,41.40
2022-12-23T16:39:39.896Z,38.72
2022-12-23T16:42:06.904Z,37.45
2022-12-23T16:44:33.655Z,34.33
2022-12-23T16:47:06.044Z,65.63
2022-12-23T16:49:33.913Z,44.58
2022-12-23T16:52:01.114Z,43.63
2022-12-23T16:54:27.903Z,40.92
2022-12-23T16:56:54.741Z,61.63
2022-12-23T16:59:21.611Z,54.92
2022-12-23T17:01:49.005Z,43.05
2022-12-23T17:04:15.887Z,48.28
2022-12-23T17:06:42.701Z,48.63
2022-12-23T17:09:10.460Z,45.75
2022-12-23T17:11:50.955Z,44.97
2022-12-23T17:14:22.440Z,60.30
2022-12-23T17:16:49.525Z,56.10
2022-12-23T17:19:19.243Z,56.05
2022-12-23T17:21:48.725Z,69.70
2022-12-23T17:24:25.511Z,93.50
2022-12-23T17:26:53.875Z,80.10
2022-12-23T17:29:20.700Z,70.72
2022-12-23T17:31:47.548Z,71.72
2022-12-23T17:34:18.414Z,54.97
2022-12-23T17:36:49.892Z,50.45
2022-12-23T17:39:17.442Z,52.20
2022-12-23T17:41:44.249Z,45.67
2022-12-23T17:44:13.570Z,42.25
2022-12-23T17:46:40.480Z,59.92
2022-12-23T17:49:08.547Z,53.72
2022-12-23T17:51:35.459Z,61.25
2022-12-23T17:54:04.497Z,70.93
2022-12-23T17:56:31.281Z,70.50
2022-12-23T17:58:58.269Z,64.40
2022-12-23T18:01:29.864Z,55.60
2022-12-23T18:03:57.312Z,55.17
2022-12-23T18:06:24.722Z,67.45
2022-12-23T18:08:51.623Z,70.13
2022-12-23T18:11:22.853Z,65.90
2022-12-23T18:13:52.808Z,49.67
2022-12-23T18:16:19.875Z,44.67
2022-12-23T18:18:47.261Z,47.88
2022-12-23T18:21:24.937Z,45.22
2022-12-23T18:23:52.608Z,55.45
2022-12-23T18:26:19.437Z,54.28
2022-12-23T18:28:46.258Z,56.70
2022-12-23T18:31:20.487Z,58.45
2022-12-23T18:33:47.528Z,68.38
2022-12-23T18:36:30.401Z,65.40
2022-12-23T18:38:57.610Z,115.88
2022-12-23T18:41:24.615Z,82.97
2022-12-23T18:43:51.552Z,80.18
2022-12-23T18:46:20.107Z,93.95
2022-12-23T18:48:47.113Z,92.22
2022-12-23T18:51:15.045Z,82.70
2022-12-23T18:53:43.515Z,92.88
2022-12-23T18:56:14.344Z,91.28
2022-12-23T18:58:41.219Z,102.15
2022-12-23T19:01:12.674Z,86.78
2022-12-23T19:03:39.622Z,91.28
2022-12-23T19:06:07.548Z,82.75
2022-12-23T19:08:35.013Z,82.25
2022-12-23T19:11:01.968Z,95.80
2022-12-23T19:13:28.867Z,83.82
2022-12-23T19:15:55.776Z,76.60
2022-12-23T19:18:22.826Z,93.13
2022-12-23T19:20:49.775Z,93.30
2022-12-23T19:23:16.656Z,86.50
2022-12-23T19:25:50.720Z,86.38
2022-12-23T19:28:21.919Z,92.05
2022-12-23T19:30:48.953Z,97.25
2022-12-23T19:33:15.974Z,100.95
2022-12-23T19:35:46.233Z,98.03
2022-12-23T19:38:13.037Z,94.07
2022-12-23T19:40:40.115Z,97.07
2022-12-23T19:43:07.002Z,104.65
2022-12-23T19:45:33.761Z,109.80
2022-12-23T19:48:00.546Z,112.18
2022-12-23T19:50:27.417Z,110.18
2022-12-23T19:52:56.465Z,126.63
2022-12-23T19:55:23.559Z,139.35
2022-12-23T19:57:50.336Z,131.27
2022-12-23T20:00:17.237Z,117.20
2022-12-23T20:02:44.132Z,126.88
2022-12-23T20:05:10.936Z,141.40
2022-12-23T20:07:37.899Z,130.68
2022-12-23T20:10:05.663Z,125.97
2022-12-23T20:12:32.601Z,123.50
2022-12-23T20:14:59.433Z,138.07
2022-12-23T20:17:29.198Z,113.20
2022-12-23T20:19:56.080Z,127.05
2022-12-23T20:22:22.809Z,133.75
2022-12-23T20:24:49.880Z,141.32
2022-12-23T20:27:20.113Z,140.40
2022-12-23T20:29:49.501Z,130.40
2022-12-23T20:32:16.320Z,136.02
2022-12-23T20:34:43.029Z,142.48
2022-12-23T20:37:12.785Z,135.25
2022-12-23T20:39:39.570Z,117.07
2022-12-23T20:42:06.437Z,122.80
2022-12-23T20:44:35.517Z,133.18
2022-12-23T20:47:03.941Z,127.78
2022-12-23T20:49:30.851Z,151.48
2022-12-23T20:51:57.667Z,137.25
2022-12-23T20:54:31.721Z,115.63
2022-12-23T20:56:59.851Z,137.70
2022-12-23T20:59:26.649Z,137.50
2022-12-23T21:01:53.528Z,131.52
2022-12-23T21:04:20.589Z,135.55
2022-12-23T21:06:47.568Z,132.52
2022-12-23T21:09:14.580Z,136.65
2022-12-23T21:11:43.325Z,144.88
2022-12-23T21:14:10.472Z,142.98
2022-12-23T21:16:37.872Z,146.57
2022-12-23T21:19:08.710Z,142.70
2022-12-23T21:21:35.568Z,134.15
2022-12-23T21:24:04.947Z,142.23
2022-12-23T21:26:32.544Z,126.22
2022-12-23T21:29:00.108Z,125.80
2022-12-23T21:31:27.601Z,128.48
2022-12-23T21:33:54.626Z,123.50
2022-12-23T21:36:23.436Z,115.18
2022-12-23T21:38:50.375Z,116.47
2022-12-23T21:41:38.803Z,117.95
2022-12-23T21:44:05.784Z,125.53
2022-12-23T21:46:35.713Z,134.80
2022-12-23T21:49:02.546Z,131.38
2022-12-23T21:51:39.702Z,132.52
2022-12-23T21:54:07.341Z,130.07
2022-12-23T21:56:34.154Z,133.98
2022-12-23T21:59:03.145Z,121.40
2022-12-23T22:01:29.966Z,122.60
2022-12-23T22:03:56.913Z,129.45
2022-12-23T22:06:31.966Z,134.98
2022-12-23T22:08:59.028Z,129.93
2022-12-23T22:11:33.652Z,129.77
2022-12-23T22:14:01.105Z,123.40
2022-12-23T22:16:28.969Z,125.20
2022-12-23T22:18:56.204Z,124.63
2022-12-23T22:21:24.071Z,125.95
2022-12-23T22:23:51.683Z,113.75
2022-12-23T22:26:25.508Z,128.35
2022-12-23T22:28:54.242Z,117.45
2022-12-23T22:31:27.497Z,121.43
2022-12-23T22:33:54.382Z,124.45
2022-12-23T22:36:21.237Z,121.60
2022-12-23T22:38:53.069Z,125.88
2022-12-23T22:41:20.219Z,114.65
2022-12-23T22:43:47.111Z,112.13
2022-12-23T22:46:14.048Z,124.85
2022-12-23T22:48:41.015Z,102.03
2022-12-23T22:51:20.738Z,117.15
2022-12-23T22:53:47.700Z,123.82
2022-12-23T22:56:15.249Z,122.68
2022-12-23T22:58:42.256Z,109.93
2022-12-23T23:01:19.659Z,110.50
2022-12-23T23:03:46.584Z,100.32
2022-12-23T23:06:13.435Z,114.05
2022-12-23T23:08:41.677Z,117.15
2022-12-23T23:11:08.639Z,121.85
2022-12-23T23:13:35.694Z,131.45
2022-12-23T23:16:02.704Z,141.07
2022-12-23T23:18:29.741Z,132.60
2022-12-23T23:20:56.642Z,133.15
2022-12-23T23:23:23.625Z,110.15
2022-12-23T23:25:50.495Z,111.82
2022-12-23T23:28:17.462Z,113.40
2022-12-23T23:30:44.353Z,113.30
2022-12-23T23:33:11.429Z,110.75
2022-12-23T23:35:38.225Z,112.22
2022-12-23T23:38:05.099Z,140.45
2022-12-23T23:40:31.920Z,123.53
2022-12-23T23:42:58.722Z,128.82
2022-12-23T23:45:27.450Z,125.18
2022-12-23T23:47:55.307Z,119.38
2022-12-23T23:50:22.229Z,126.82
2022-12-23T23:52:49.094Z,130.77
2022-12-23T23:55:16.041Z,127.10
2022-12-23T23:57:42.861Z,124.70
